createdAt,value
2022-08-30T00:01:05.347Z,33.29
2022-08-30T00:03:41.670Z,33.44
2022-08-30T00:06:09.912Z,33.63
2022-08-30T00:08:37.689Z,33.80
2022-08-30T00:11:06.375Z,34.09
2022-08-30T00:13:33.097Z,34.18
2022-08-30T00:15:59.788Z,34.28
2022-08-30T00:18:26.486Z,35.04
2022-08-30T00:20:53.228Z,35.31
2022-08-30T00:23:20.121Z,35.48
2022-08-30T00:25:47.245Z,36.09
2022-08-30T00:28:14.669Z,36.72
2022-08-30T00:30:42.017Z,36.91
2022-08-30T00:33:09.523Z,36.88
2022-08-30T00:35:36.794Z,37.05
2022-08-30T00:38:03.579Z,36.67
2022-08-30T00:40:30.930Z,36.77
2022-08-30T00:43:00.015Z,36.68
2022-08-30T00:45:35.631Z,36.92
2022-08-30T00:48:02.965Z,36.52
2022-08-30T00:50:34.565Z,36.84
2022-08-30T00:53:05.985Z,37.15
2022-08-30T00:55:33.389Z,36.95
2022-08-30T00:58:03.945Z,37.00
2022-08-30T01:00:32.275Z,37.15
2022-08-30T01:02:59.032Z,37.21
2022-08-30T01:05:25.887Z,37.06
2022-08-30T01:07:52.756Z,37.33
2022-08-30T01:10:19.943Z,37.69
2022-08-30T01:12:47.614Z,37.74
2022-08-30T01:15:15.207Z,37.63
2022-08-30T01:17:44.311Z,37.81
2022-08-30T01:20:17.318Z,38.13
2022-08-30T01:22:50.084Z,38.54
2022-08-30T01:25:20.967Z,38.81
2022-08-30T01:27:53.441Z,39.05
2022-08-30T01:30:20.385Z,39.39
2022-08-30T01:32:47.907Z,39.08
2022-08-30T01:35:17.488Z,38.85
2022-08-30T01:37:45.217Z,38.88
2022-08-30T01:40:14.622Z,38.76
2022-08-30T01:42:41.407Z,39.05
2022-08-30T01:45:09.447Z,39.31
2022-08-30T01:47:36.240Z,39.31
2022-08-30T01:50:05.545Z,39.32
2022-08-30T01:52:32.310Z,39.57
2022-08-30T01:54:59.097Z,39.55
2022-08-30T01:57:28.592Z,40.05
2022-08-30T01:59:55.580Z,39.80
2022-08-30T02:02:26.949Z,39.63
2022-08-30T02:04:54.566Z,39.75
2022-08-30T02:07:23.131Z,39.50
2022-08-30T02:09:51.341Z,39.81
2022-08-30T02:12:18.533Z,39.54
2022-08-30T02:14:45.420Z,39.50
2022-08-30T02:17:14.719Z,39.63
2022-08-30T02:19:42.100Z,39.35
2022-08-30T02:22:09.237Z,39.64
2022-08-30T02:24:35.950Z,39.78
2022-08-30T02:27:02.758Z,40.05
2022-08-30T02:29:29.802Z,40.42
2022-08-30T02:31:56.504Z,40.49
2022-08-30T02:34:23.628Z,40.05
2022-08-30T02:36:50.501Z,39.86
2022-08-30T02:39:17.310Z,39.95
2022-08-30T02:41:44.157Z,40.41
2022-08-30T02:44:11.553Z,40.43
2022-08-30T02:46:38.720Z,40.50
2022-08-30T02:51:52.598Z,40.47
2022-08-30T02:54:21.826Z,40.48
2022-08-30T02:56:49.860Z,40.55
2022-08-30T02:59:18.108Z,40.57
2022-08-30T03:01:45.464Z,40.47
2022-08-30T03:04:12.222Z,40.39
2022-08-30T03:06:38.897Z,40.88
2022-08-30T03:09:05.555Z,40.71
2022-08-30T03:11:32.352Z,40.55
2022-08-30T03:13:59.418Z,40.61
2022-08-30T03:16:26.189Z,40.62
2022-08-30T03:18:52.806Z,40.69
2022-08-30T03:21:19.505Z,41.07
2022-08-30T03:23:46.220Z,41.16
2022-08-30T03:26:14.814Z,41.41
2022-08-30T03:28:43.079Z,41.39
2022-08-30T03:31:10.460Z,41.06
2022-08-30T03:33:40.014Z,41.56
2022-08-30T03:36:08.675Z,41.64
2022-08-30T03:38:36.244Z,41.53
2022-08-30T03:41:04.247Z,41.40
2022-08-30T03:43:33.397Z,41.51
2022-08-30T03:46:01.305Z,41.52
2022-08-30T03:48:28.754Z,42.01
2022-08-30T03:50:56.057Z,42.18
2022-08-30T03:53:24.345Z,42.20
2022-08-30T03:55:54.307Z,42.23
2022-08-30T03:58:22.238Z,42.08
2022-08-30T04:00:49.471Z,41.82
2022-08-30T04:03:16.537Z,41.69
2022-08-30T04:05:43.446Z,41.95
2022-08-30T04:08:10.116Z,41.75
2022-08-30T04:10:37.031Z,41.87
2022-08-30T04:13:03.696Z,41.77
2022-08-30T04:15:30.321Z,41.50
2022-08-30T04:17:57.313Z,41.62
2022-08-30T04:20:23.937Z,41.62
2022-08-30T04:22:51.661Z,41.80
2022-08-30T04:25:18.698Z,41.93
2022-08-30T04:27:46.264Z,41.88
2022-08-30T04:30:15.008Z,42.05
2022-08-30T04:32:42.052Z,42.12
2022-08-30T04:35:10.056Z,42.27
2022-08-30T04:37:38.214Z,42.53
2022-08-30T04:40:06.245Z,42.98
2022-08-30T04:42:34.830Z,42.92
2022-08-30T04:45:04.477Z,43.12
2022-08-30T04:47:31.609Z,43.13
2022-08-30T04:49:58.663Z,42.91
2022-08-30T04:52:25.369Z,43.67
2022-08-30T04:54:58.970Z,43.14
2022-08-30T04:57:27.247Z,43.02
2022-08-30T04:59:54.776Z,42.86
2022-08-30T05:02:21.957Z,42.61
2022-08-30T05:05:07.032Z,42.58
2022-08-30T05:07:33.777Z,43.20
2022-08-30T05:10:00.467Z,42.94
2022-08-30T05:12:27.685Z,42.98
2022-08-30T05:14:54.389Z,42.80
2022-08-30T05:17:21.000Z,43.17
2022-08-30T05:19:47.617Z,43.08
2022-08-30T05:22:14.256Z,42.99
2022-08-30T05:24:41.040Z,43.38
2022-08-30T05:27:09.207Z,42.93
2022-08-30T05:29:35.871Z,42.93
2022-08-30T05:32:02.724Z,42.96
2022-08-30T05:34:30.552Z,43.06
2022-08-30T05:36:57.256Z,42.82
2022-08-30T05:39:23.945Z,43.07
2022-08-30T05:41:50.581Z,42.84
2022-08-30T05:44:17.242Z,43.12
2022-08-30T05:46:46.203Z,43.15
2022-08-30T05:49:13.257Z,43.38
2022-08-30T05:51:42.966Z,42.71
2022-08-30T05:54:12.681Z,42.38
2022-08-30T05:56:40.615Z,42.64
2022-08-30T05:59:09.130Z,42.75
2022-08-30T06:01:39.786Z,42.68
2022-08-30T06:04:08.517Z,42.81
2022-08-30T06:06:37.209Z,43.02
2022-08-30T06:09:05.866Z,42.89
2022-08-30T06:11:34.063Z,42.99
2022-08-30T06:14:01.588Z,42.78
2022-08-30T06:16:29.208Z,42.84
2022-08-30T06:18:57.968Z,42.70
2022-08-30T06:21:27.887Z,42.74
2022-08-30T06:23:55.470Z,42.92
2022-08-30T06:26:23.142Z,42.73
2022-08-30T06:28:50.491Z,42.46
2022-08-30T06:31:19.389Z,42.44
2022-08-30T06:33:47.479Z,42.14
2022-08-30T06:36:17.862Z,42.36
2022-08-30T06:38:45.574Z,42.15
2022-08-30T06:41:15.670Z,41.97
2022-08-30T06:43:46.737Z,42.12
2022-08-30T06:46:19.755Z,41.87
2022-08-30T06:48:48.359Z,41.16
2022-08-30T06:51:19.092Z,41.33
2022-08-30T06:53:47.129Z,40.58
2022-08-30T06:56:16.754Z,40.34
2022-08-30T06:58:43.868Z,40.34
2022-08-30T07:01:15.576Z,39.66
2022-08-30T07:03:42.333Z,39.99
2022-08-30T07:06:09.529Z,40.34
2022-08-30T07:08:36.848Z,39.94
2022-08-30T07:11:05.536Z,39.45
2022-08-30T07:13:32.539Z,39.43
2022-08-30T07:15:59.349Z,39.43
2022-08-30T07:18:44.787Z,39.50
2022-08-30T07:21:15.241Z,39.87
2022-08-30T07:23:48.343Z,40.27
2022-08-30T07:26:21.766Z,40.56
2022-08-30T07:28:49.003Z,40.90
2022-08-30T07:31:23.045Z,40.35
2022-08-30T07:33:49.893Z,40.00
2022-08-30T07:36:17.653Z,40.07
2022-08-30T07:38:45.930Z,40.04
2022-08-30T07:41:26.202Z,39.72
2022-08-30T07:43:53.673Z,39.36
2022-08-30T07:46:21.005Z,38.85
2022-08-30T07:48:48.372Z,38.78
2022-08-30T07:51:18.581Z,38.56
2022-08-30T07:53:45.762Z,38.01
2022-08-30T07:56:13.218Z,37.92
2022-08-30T07:58:39.937Z,38.23
2022-08-30T08:01:08.626Z,38.20
2022-08-30T08:03:35.754Z,37.87
2022-08-30T08:06:05.790Z,37.34
2022-08-30T08:08:33.272Z,37.13
2022-08-30T08:11:16.425Z,37.12
2022-08-30T08:13:52.864Z,36.97
2022-08-30T08:16:26.158Z,36.84
2022-08-30T08:18:53.954Z,36.92
2022-08-30T08:21:22.688Z,36.77
2022-08-30T08:23:49.774Z,36.59
2022-08-30T08:26:16.657Z,36.48
2022-08-30T08:28:44.924Z,36.42
2022-08-30T08:31:27.159Z,36.00
2022-08-30T08:36:30.145Z,36.46
2022-08-30T08:38:56.820Z,36.26
2022-08-30T08:41:49.721Z,36.26
2022-08-30T08:44:34.630Z,36.66
2022-08-30T08:47:16.948Z,37.05
2022-08-30T08:49:46.220Z,37.13
2022-08-30T08:52:38.831Z,36.67
2022-08-30T08:55:10.270Z,36.84
2022-08-30T08:57:38.099Z,36.58
2022-08-30T09:00:11.287Z,36.32
2022-08-30T09:02:57.057Z,36.39
2022-08-30T09:05:27.750Z,36.16
2022-08-30T09:08:05.510Z,35.88
2022-08-30T09:10:49.983Z,36.00
2022-08-30T09:13:19.081Z,35.57
2022-08-30T09:15:47.388Z,35.45
2022-08-30T09:18:19.594Z,35.24
2022-08-30T09:20:51.493Z,35.04
2022-08-30T09:23:29.932Z,34.95
2022-08-30T09:26:05.378Z,35.66
2022-08-30T09:28:47.035Z,35.11
2022-08-30T09:31:22.570Z,35.24
2022-08-30T09:34:05.095Z,35.55
2022-08-30T09:36:40.843Z,35.46
2022-08-30T09:39:30.194Z,34.98
2022-08-30T09:42:20.934Z,34.38
2022-08-30T09:44:47.672Z,34.83
2022-08-30T09:47:27.753Z,33.78
2022-08-30T09:50:14.128Z,33.84
2022-08-30T09:53:01.959Z,33.69
2022-08-30T09:55:35.061Z,34.35
2022-08-30T09:58:17.338Z,34.18
2022-08-30T10:00:58.227Z,34.06
2022-08-30T10:03:40.524Z,34.04
2022-08-30T10:06:16.531Z,33.67
2022-08-30T10:09:07.920Z,33.06
2022-08-30T10:11:56.595Z,33.24
2022-08-30T10:14:51.049Z,32.68
2022-08-30T10:17:38.994Z,32.77
2022-08-30T10:20:12.318Z,32.97
2022-08-30T10:22:48.384Z,32.75
2022-08-30T10:25:23.413Z,32.34
2022-08-30T10:27:53.740Z,32.51
2022-08-30T10:30:20.604Z,32.22
2022-08-30T10:33:00.847Z,33.36
2022-08-30T10:35:39.178Z,32.86
2022-08-30T10:38:13.703Z,32.90
2022-08-30T10:41:06.128Z,33.24
2022-08-30T10:44:08.167Z,32.86
2022-08-30T10:47:02.720Z,33.43
2022-08-30T10:49:35.223Z,33.00
2022-08-30T10:52:26.168Z,31.59
2022-08-30T10:55:22.981Z,31.60
2022-08-30T10:57:51.158Z,32.08
2022-08-30T11:00:28.916Z,32.28
2022-08-30T11:02:58.656Z,31.87
2022-08-30T11:05:31.740Z,31.73
2022-08-30T11:08:22.899Z,31.85
2022-08-30T11:11:05.126Z,32.32
2022-08-30T11:13:35.793Z,32.29
2022-08-30T11:16:09.875Z,32.33
2022-08-30T11:18:53.243Z,32.57
2022-08-30T11:21:38.745Z,31.56
2022-08-30T11:24:11.744Z,31.85
2022-08-30T11:26:50.857Z,31.80
2022-08-30T11:29:35.915Z,31.44
2022-08-30T11:32:11.921Z,31.08
2022-08-30T11:34:44.840Z,30.97
2022-08-30T11:37:30.352Z,30.96
2022-08-30T11:42:49.143Z,30.61
2022-08-30T11:45:22.078Z,30.27
2022-08-30T11:47:53.357Z,30.57
2022-08-30T11:50:33.669Z,30.83
2022-08-30T11:53:44.634Z,30.59
2022-08-30T11:56:21.196Z,30.30
2022-08-30T11:58:57.459Z,31.37
2022-08-30T12:01:52.060Z,31.83
2022-08-30T12:04:17.266Z,31.61
2022-08-30T12:06:51.569Z,31.48
2022-08-30T12:09:18.208Z,30.75
2022-08-30T12:12:02.284Z,31.43
2022-08-30T12:14:47.331Z,30.74
2022-08-30T12:17:47.288Z,31.15
2022-08-30T12:20:40.450Z,30.04
2022-08-30T12:23:23.294Z,30.28
2022-08-30T12:25:50.321Z,30.48
2022-08-30T12:28:23.997Z,29.29
2022-08-30T12:30:51.374Z,30.49
2022-08-30T12:33:41.192Z,29.75
2022-08-30T12:36:13.005Z,29.68
2022-08-30T12:38:40.848Z,29.34
2022-08-30T12:41:08.037Z,29.92
2022-08-30T12:43:47.594Z,29.90
2022-08-30T12:46:17.667Z,30.09
2022-08-30T12:48:45.236Z,29.76
2022-08-30T12:51:42.053Z,29.99
2022-08-30T12:54:19.273Z,30.57
2022-08-30T12:57:13.989Z,30.09
2022-08-30T12:59:54.254Z,30.84
2022-08-30T13:02:46.826Z,29.98
2022-08-30T13:05:34.272Z,29.75
2022-08-30T13:08:21.283Z,30.43
2022-08-30T13:11:10.726Z,30.83
2022-08-30T13:13:44.730Z,31.21
2022-08-30T13:16:20.627Z,30.47
2022-08-30T13:18:53.368Z,30.60
2022-08-30T13:21:31.989Z,30.45
2022-08-30T13:24:04.179Z,29.90
2022-08-30T13:26:35.248Z,29.65
2022-08-30T13:29:05.567Z,29.01
2022-08-30T13:31:37.536Z,29.05
2022-08-30T13:34:04.966Z,29.06
2022-08-30T13:36:35.392Z,29.08
2022-08-30T13:39:03.116Z,29.12
2022-08-30T13:41:33.942Z,28.89
2022-08-30T13:44:12.924Z,28.93
2022-08-30T13:46:44.074Z,29.16
2022-08-30T13:52:20.821Z,29.03
2022-08-30T13:54:56.290Z,29.05
2022-08-30T14:00:19.126Z,28.53
2022-08-30T14:02:54.532Z,28.77
2022-08-30T14:06:00.400Z,28.92
2022-08-30T14:08:47.797Z,28.42
2022-08-30T14:11:19.295Z,29.61
2022-08-30T14:16:36.151Z,31.86
2022-08-30T14:19:02.930Z,29.62
2022-08-30T14:21:30.214Z,30.31
2022-08-30T14:23:58.682Z,29.57
2022-08-30T14:26:32.353Z,29.36
2022-08-30T14:29:04.773Z,27.95
2022-08-30T14:31:32.830Z,28.02
2022-08-30T14:34:04.231Z,26.78
2022-08-30T14:36:33.287Z,26.83
2022-08-30T14:39:00.636Z,25.92
2022-08-30T14:41:27.687Z,26.03
2022-08-30T14:43:54.377Z,25.83
2022-08-30T14:47:36.396Z,24.71
2022-08-30T14:50:04.796Z,24.18
2022-08-30T14:52:32.712Z,25.44
2022-08-30T14:55:08.621Z,25.95
2022-08-30T14:57:38.584Z,27.13
2022-08-30T15:00:09.125Z,26.91
2022-08-30T15:02:35.994Z,25.19
2022-08-30T15:05:02.838Z,23.85
2022-08-30T15:07:33.725Z,22.66
2022-08-30T15:10:00.315Z,23.96
2022-08-30T15:12:29.625Z,25.39
2022-08-30T15:14:56.223Z,25.02
2022-08-30T15:17:22.953Z,27.69
2022-08-30T15:19:49.733Z,26.76
2022-08-30T15:22:16.969Z,26.53
2022-08-30T15:24:43.638Z,26.86
2022-08-30T15:27:15.581Z,28.84
2022-08-30T15:29:42.183Z,28.59
2022-08-30T15:32:09.047Z,28.88
2022-08-30T15:34:36.064Z,28.36
2022-08-30T15:37:03.887Z,28.42
2022-08-30T15:39:31.095Z,27.67
2022-08-30T15:42:00.985Z,28.44
2022-08-30T15:44:29.932Z,27.98
2022-08-30T15:46:56.794Z,28.17
2022-08-30T15:58:25.258Z,28.70
2022-08-30T16:00:53.014Z,28.59
2022-08-30T16:03:19.964Z,28.54
2022-08-30T16:05:46.735Z,28.05
2022-08-30T16:08:13.624Z,28.07
2022-08-30T16:10:43.227Z,27.63
2022-08-30T16:13:10.114Z,27.76
2022-08-30T16:15:39.731Z,27.80
2022-08-30T16:18:06.869Z,27.54
2022-08-30T16:20:33.586Z,27.59
2022-08-30T16:23:00.167Z,27.68
2022-08-30T16:25:40.090Z,28.19
2022-08-30T16:28:08.083Z,28.46
2022-08-30T16:30:36.891Z,28.27
2022-08-30T16:33:03.885Z,28.33
2022-08-30T16:35:32.689Z,27.68
2022-08-30T16:37:59.447Z,27.45
2022-08-30T16:40:26.123Z,27.74
2022-08-30T16:42:52.799Z,27.62
2022-08-30T16:45:20.129Z,27.62
2022-08-30T16:47:46.796Z,27.51
2022-08-30T16:50:16.610Z,28.15
2022-08-30T16:52:44.694Z,28.05
2022-08-30T16:55:11.385Z,27.77
2022-08-30T16:57:39.726Z,27.33
2022-08-30T17:00:13.328Z,27.37
2022-08-30T17:02:42.839Z,27.75
2022-08-30T17:05:22.665Z,27.74
2022-08-30T17:07:50.216Z,27.69
2022-08-30T17:10:20.918Z,28.10
2022-08-30T17:12:50.193Z,27.89
2022-08-30T17:15:19.895Z,27.75
2022-08-30T17:17:48.158Z,28.12
2022-08-30T17:20:16.013Z,27.95
2022-08-30T17:22:42.804Z,28.15
2022-08-30T17:25:13.177Z,27.98
2022-08-30T17:27:39.925Z,27.82
2022-08-30T17:30:09.536Z,27.99
2022-08-30T17:32:36.265Z,28.20
2022-08-30T17:35:04.210Z,27.99
2022-08-30T17:37:33.242Z,28.24
2022-08-30T17:40:00.642Z,28.27
2022-08-30T17:42:29.570Z,28.14
2022-08-30T17:44:56.617Z,28.49
2022-08-30T17:47:23.764Z,28.23
2022-08-30T17:49:51.338Z,27.98
2022-08-30T17:52:17.969Z,28.39
2022-08-30T17:54:44.692Z,27.89
2022-08-30T17:57:13.032Z,28.44
2022-08-30T17:59:40.724Z,28.29
2022-08-30T18:02:07.615Z,28.51
2022-08-30T18:04:39.281Z,28.57
2022-08-30T18:07:09.571Z,28.54
2022-08-30T18:09:39.975Z,28.69
2022-08-30T18:12:07.899Z,28.66
2022-08-30T18:14:34.901Z,28.78
2022-08-30T18:17:06.330Z,28.75
2022-08-30T18:19:33.027Z,29.03
2022-08-30T18:22:03.151Z,28.95
2022-08-30T18:24:30.319Z,28.78
2022-08-30T18:26:58.307Z,28.78
2022-08-30T18:29:29.384Z,28.47
2022-08-30T18:31:59.515Z,28.43
2022-08-30T18:34:26.433Z,28.62
2022-08-30T18:36:53.672Z,28.95
2022-08-30T18:39:21.910Z,28.70
2022-08-30T18:41:50.673Z,28.79
2022-08-30T18:44:28.236Z,28.96
2022-08-30T18:46:57.530Z,28.97
2022-08-30T18:49:25.373Z,29.16
2022-08-30T18:51:52.313Z,30.11
2022-08-30T18:54:19.341Z,29.63
2022-08-30T18:56:46.342Z,30.03
2022-08-30T18:59:13.300Z,29.94
2022-08-30T19:01:40.559Z,29.98
2022-08-30T19:04:07.694Z,30.50
2022-08-30T19:06:34.921Z,30.05
2022-08-30T19:09:08.977Z,29.44
2022-08-30T19:11:38.280Z,29.93
2022-08-30T19:14:05.606Z,30.05
2022-08-30T19:16:35.964Z,30.32
2022-08-30T19:19:04.161Z,30.44
2022-08-30T19:21:30.841Z,29.46
2022-08-30T19:23:58.503Z,30.09
2022-08-30T19:26:27.546Z,29.94
2022-08-30T19:28:54.638Z,30.11
2022-08-30T19:31:21.826Z,29.82
2022-08-30T19:33:48.472Z,29.93
2022-08-30T19:36:15.168Z,29.88
2022-08-30T19:38:44.346Z,30.06
2022-08-30T19:41:12.404Z,30.08
2022-08-30T19:43:40.273Z,29.55
2022-08-30T19:46:07.764Z,30.10
2022-08-30T19:48:39.043Z,30.12
2022-08-30T19:51:11.051Z,30.46
2022-08-30T19:53:40.888Z,30.56
2022-08-30T19:56:08.408Z,30.20
2022-08-30T19:58:35.129Z,30.51
2022-08-30T20:01:12.262Z,30.42
2022-08-30T20:03:51.914Z,30.27
2022-08-30T20:06:19.638Z,30.38
2022-08-30T20:08:47.149Z,30.39
2022-08-30T20:11:19.985Z,30.48
2022-08-30T20:13:47.410Z,30.11
2022-08-30T20:16:14.801Z,30.44
2022-08-30T20:18:43.175Z,30.20
2022-08-30T20:21:13.453Z,30.08
2022-08-30T20:23:41.947Z,29.82
2022-08-30T20:26:11.069Z,29.62
2022-08-30T20:28:38.226Z,29.48
2022-08-30T20:31:07.198Z,30.18
2022-08-30T20:33:39.091Z,29.96
2022-08-30T20:36:08.499Z,30.51
2022-08-30T20:38:35.324Z,30.29
2022-08-30T20:41:10.474Z,30.53
2022-08-30T20:43:37.893Z,30.47
2022-08-30T20:46:17.797Z,30.45
2022-08-30T20:48:46.307Z,29.92
2022-08-30T20:51:16.221Z,30.25
2022-08-30T20:53:43.928Z,30.00
2022-08-30T20:56:18.750Z,30.29
2022-08-30T20:58:46.240Z,29.94
2022-08-30T21:01:14.052Z,30.19
2022-08-30T21:03:41.898Z,30.06
2022-08-30T21:06:08.936Z,30.26
2022-08-30T21:08:35.638Z,30.19
2022-08-30T21:11:02.355Z,30.34
2022-08-30T21:13:29.097Z,30.50
2022-08-30T21:16:00.630Z,30.95
2022-08-30T21:18:32.688Z,31.02
2022-08-30T21:21:21.043Z,31.28
2022-08-30T21:23:49.399Z,30.98
2022-08-30T21:26:17.578Z,30.76
2022-08-30T21:28:50.172Z,31.51
2022-08-30T21:31:20.600Z,30.99
2022-08-30T21:33:49.410Z,31.60
2022-08-30T21:36:36.221Z,31.56
2022-08-30T21:39:04.675Z,30.98
2022-08-30T21:41:31.566Z,31.43
2022-08-30T21:44:00.777Z,31.79
2022-08-30T21:46:28.833Z,31.30
2022-08-30T21:48:59.120Z,31.70
2022-08-30T21:51:25.862Z,31.74
2022-08-30T21:53:52.601Z,31.71
2022-08-30T21:56:22.007Z,31.82
2022-08-30T21:58:49.526Z,32.42
2022-08-30T22:01:25.352Z,32.27
2022-08-30T22:03:53.967Z,32.43
2022-08-30T22:06:21.883Z,32.45
2022-08-30T22:08:52.104Z,32.19
2022-08-30T22:11:22.585Z,32.28
2022-08-30T22:13:50.597Z,32.28
2022-08-30T22:16:19.825Z,32.73
2022-08-30T22:18:46.742Z,32.74
2022-08-30T22:21:18.354Z,32.92
2022-08-30T22:23:45.525Z,32.73
2022-08-30T22:26:14.317Z,32.82
2022-08-30T22:28:41.085Z,32.99
2022-08-30T22:31:09.923Z,33.12
2022-08-30T22:33:37.275Z,33.35
2022-08-30T22:36:13.963Z,33.14
2022-08-30T22:38:41.264Z,33.07
2022-08-30T22:41:13.292Z,32.99
2022-08-30T22:43:40.484Z,33.23
2022-08-30T22:46:08.031Z,33.62
2022-08-30T22:48:35.985Z,33.96
2022-08-30T22:51:02.997Z,33.49
2022-08-30T22:53:29.957Z,33.55
2022-08-30T22:55:56.968Z,33.73
2022-08-30T22:58:23.843Z,34.05
2022-08-30T23:00:55.001Z,33.42
2022-08-30T23:03:22.289Z,33.30
2022-08-30T23:05:49.033Z,33.67
2022-08-30T23:08:15.681Z,33.74
2022-08-30T23:10:44.307Z,34.06
2022-08-30T23:13:11.493Z,33.93
2022-08-30T23:15:38.397Z,34.23
2022-08-30T23:18:05.442Z,34.02
2022-08-30T23:20:32.225Z,34.50
2022-08-30T23:22:58.961Z,34.17
2022-08-30T23:25:52.142Z,34.37
2022-08-30T23:28:39.390Z,34.34
2022-08-30T23:31:29.999Z,34.32
2022-08-30T23:34:16.116Z,34.08
2022-08-30T23:37:01.908Z,34.37
2022-08-30T23:39:47.229Z,34.41
2022-08-30T23:42:32.727Z,34.44
2022-08-30T23:45:18.033Z,34.33
2022-08-30T23:48:03.628Z,34.55
2022-08-30T23:50:49.013Z,34.64
2022-08-30T23:53:34.403Z,34.44
2022-08-30T23:56:19.778Z,34.71
2022-08-30T23:59:05.114Z,34.48
